Etusivu
METAR-TAF:

METAR-TAF

Lentoasemat :

Revelstoke, Brittiläinen Kolumbia, Kanada

Leveyspiiri: 50-58N, Pituuspiiri: 118-11W, korkeus merenpinnasta: 443 m

Tämänhetkinen sää

Tämä raportti tehtiin 55 minuuttia sitten, kello 02.00 UTC
Tuuli 9 kn pohjoisesta/koillisesta puuskistuen 15 kn:hen, vaihdellen pohjoisen ja idän/koillisen välillä
Lämpötila 21°C
Kosteus 35%
Ilmanpaine 1012 hPa
Näkyvyys: 14.5 km
selkeää

METAR: CYRV 260200Z AUTO 02009G15KT 350V070 9SM CLR 21/05 A2987 RMK SLP117 DENSITY ALT 2500FT

Aika: 19:55 (02:55 UTC)


TAF: puuttuu

Säähavainnot ja -ennusteet yli 4000 lentoasemalta (METAR- ja TAF-raportit).

Käytössä olevat sääasemat on merkitty karttaan keltaisilla ja punaisilla pisteillä.

Aseta hiiri pisteen päälle nähdäksesi sääaseman nimen.

Klikkaa sitten nähdäksesi säähavainnot ja -ennusteet.

Kartan vaihtaminen: klikkaa mustalla rastilla varustettuja vihreitä pisteitä, niin voit zoomata sisään; viivalla varustettua vihreää pistettä, niin voit zoomata ulos tai vihreitä nuolia, niin pääset viereisille kartoille.


METAR-TAF: